Time;durP1;ratioP1;P1;durP2;ratioP2;P2;SDS_P1;SDS_P2;PMS_P1;PMS_P2;Temp;Humidity;BMP_temperature;BMP_pressure;BME280_temperature;BME280_humidity;BME280_pressure;Samples;Min_cycle;Max_cycle;Signal;HPM_P1;HPM_P2
2022/12/04 00:01:18;;;;;;;;;;;1.90;81.70;;;;;;4975137;28;19910;-81
2022/12/04 00:03:44;;;;;;;;;;;1.90;81.00;;;;;;4975068;28;19906;-82
2022/12/04 00:06:11;;;;;;;;;;;1.90;80.80;;;;;;4957802;28;19906;-81
2022/12/04 00:08:37;;;;;;;;;;;1.90;80.50;;;;;;4974890;28;19906;-81
2022/12/04 00:11:02;;;;;;;;;;;2.00;80.40;;;;;;4957674;28;20378;-81
2022/12/04 00:13:28;;;;;;;;;;;2.00;80.40;;;;;;4974829;28;20359;-82
2022/12/04 00:15:53;;;;;;;;;;;2.00;80.40;;;;;;4974947;28;19917;-81
2022/12/04 00:18:19;;;;;;;;;;;2.10;80.10;;;;;;4957579;28;20275;-81
2022/12/04 00:20:44;;;;;;;;;;;2.10;79.80;;;;;;4975226;28;20290;-81
2022/12/04 00:23:10;;;;;;;;;;;2.10;79.60;;;;;;4958033;28;19937;-82
2022/12/04 00:25:35;;;;;;;;;;;2.20;79.70;;;;;;4974988;28;19913;-81
2022/12/04 00:28:01;;;;;;;;;;;2.10;79.70;;;;;;4974690;28;19905;-81
2022/12/04 00:30:27;;;;;;;;;;;2.10;79.80;;;;;;4974581;28;20426;-81
2022/12/04 00:32:52;;;;;;;;;;;2.10;80.00;;;;;;4957398;28;19906;-81
2022/12/04 00:35:17;;;;;;;;;;;2.10;79.60;;;;;;4957243;28;20366;-81
2022/12/04 00:37:43;;;;;;;;;;;2.10;79.40;;;;;;4974544;28;19935;-81
2022/12/04 00:40:09;;;;;;;;;;;2.00;79.30;;;;;;4956335;28;19906;-81
2022/12/04 00:42:34;;;;;;;;;;;2.00;79.70;;;;;;4957289;28;19917;-81
2022/12/04 00:45:00;;;;;;;;;;;1.90;79.90;;;;;;4974604;28;19941;-81
2022/12/04 00:47:25;;;;;;;;;;;1.90;80.30;;;;;;4974281;28;19918;-81
2022/12/04 00:49:51;;;;;;;;;;;2.00;80.00;;;;;;4974576;28;20354;-81
2022/12/04 00:52:16;;;;;;;;;;;2.00;79.80;;;;;;4974457;28;19910;-81
2022/12/04 00:54:41;;;;;;;;;;;1.90;79.80;;;;;;4974413;28;20416;-81
2022/12/04 00:57:07;;;;;;;;;;;2.00;79.90;;;;;;4974495;28;19917;-80
2022/12/04 00:59:32;;;;;;;;;;;2.00;79.90;;;;;;4957026;28;20378;-81
2022/12/04 01:01:58;;;;;;;;;;;2.00;80.20;;;;;;4974396;28;19957;-81
2022/12/04 01:04:23;;;;;;;;;;;2.00;80.30;;;;;;4974464;28;19996;-81
2022/12/04 01:06:49;;;;;;;;;;;2.00;80.20;;;;;;4956934;28;19906;-81
2022/12/04 01:09:14;;;;;;;;;;;2.00;80.00;;;;;;4957109;28;19906;-81
2022/12/04 01:11:40;;;;;;;;;;;2.10;80.00;;;;;;4974319;28;19910;-81
2022/12/04 01:14:05;;;;;;;;;;;2.00;79.80;;;;;;4974279;28;20361;-81
2022/12/04 01:16:32;;;;;;;;;;;2.10;79.90;;;;;;4974340;28;19913;-82
2022/12/04 01:18:58;;;;;;;;;;;2.10;79.80;;;;;;4974216;28;20433;-82
2022/12/04 01:21:24;;;;;;;;;;;2.10;79.70;;;;;;4974179;28;19906;-82
2022/12/04 01:23:49;;;;;;;;;;;2.00;79.50;;;;;;4956908;28;19960;-82
2022/12/04 01:26:15;;;;;;;;;;;2.10;79.70;;;;;;4956883;28;20259;-82
2022/12/04 01:28:40;;;;;;;;;;;2.00;79.70;;;;;;4974187;28;20002;-81
2022/12/04 01:31:07;;;;;;;;;;;1.90;80.00;;;;;;4956759;28;19910;-82
2022/12/04 01:33:33;;;;;;;;;;;1.90;80.00;;;;;;4974071;28;19914;-82
2022/12/04 01:36:00;;;;;;;;;;;1.90;79.70;;;;;;4974101;28;19906;-82
2022/12/04 01:38:25;;;;;;;;;;;1.90;79.90;;;;;;4974104;28;19913;-82
2022/12/04 01:40:51;;;;;;;;;;;1.90;80.20;;;;;;4956721;28;19906;-82
2022/12/04 01:43:17;;;;;;;;;;;1.80;80.50;;;;;;4956730;28;19906;-82
2022/12/04 01:45:43;;;;;;;;;;;1.80;80.50;;;;;;4973972;28;20048;-82
2022/12/04 01:48:08;;;;;;;;;;;1.80;80.40;;;;;;4956642;28;19997;-82
2022/12/04 01:50:34;;;;;;;;;;;1.80;80.60;;;;;;4975084;28;19988;-82
2022/12/04 01:52:59;;;;;;;;;;;1.80;80.60;;;;;;4977317;28;19910;-82
2022/12/04 01:55:25;;;;;;;;;;;1.80;80.80;;;;;;4977433;28;19957;-82
2022/12/04 01:57:50;;;;;;;;;;;1.80;80.60;;;;;;4959972;28;20013;-82
2022/12/04 02:00:16;;;;;;;;;;;1.80;80.70;;;;;;4977323;28;19909;-82
2022/12/04 02:02:43;;;;;;;;;;;1.80;80.70;;;;;;4977217;28;19952;-82
2022/12/04 02:05:10;;;;;;;;;;;1.90;80.80;;;;;;4959742;28;19906;-82
2022/12/04 02:07:36;;;;;;;;;;;1.90;80.50;;;;;;4959751;28;19906;-82
2022/12/04 02:10:05;;;;;;;;;;;1.90;80.70;;;;;;4977084;28;19972;-82
2022/12/04 02:12:53;;;;;;;;;;;1.90;80.40;;;;;;4977027;28;19910;-81
2022/12/04 02:15:33;;;;;;;;;;;1.90;80.60;;;;;;4966639;28;19969;-81
2022/12/04 02:18:06;;;;;;;;;;;1.90;80.70;;;;;;4959645;28;19942;-80
2022/12/04 02:20:37;;;;;;;;;;;1.90;80.80;;;;;;4976855;28;19956;-81
2022/12/04 02:23:21;;;;;;;;;;;1.90;80.50;;;;;;4959587;28;19910;-81
2022/12/04 02:26:00;;;;;;;;;;;1.90;80.70;;;;;;4976852;28;19905;-81
2022/12/04 02:28:47;;;;;;;;;;;1.90;80.60;;;;;;4976778;28;20244;-81
2022/12/04 02:31:16;;;;;;;;;;;1.90;80.60;;;;;;4976743;28;19906;-81
2022/12/04 02:33:44;;;;;;;;;;;1.90;80.30;;;;;;4959181;28;19916;-80
2022/12/04 02:36:13;;;;;;;;;;;2.00;80.20;;;;;;4959338;28;20369;-81
2022/12/04 02:38:54;;;;;;;;;;;2.00;80.10;;;;;;4976712;28;19917;-80
2022/12/04 02:41:24;;;;;;;;;;;2.00;80.10;;;;;;4959220;28;19913;-80
2022/12/04 02:43:53;;;;;;;;;;;2.00;79.70;;;;;;4959318;28;19962;-81
2022/12/04 02:46:22;;;;;;;;;;;2.00;79.40;;;;;;4976301;28;20005;-81
2022/12/04 02:48:49;;;;;;;;;;;2.00;79.20;;;;;;4976388;28;19906;-81
2022/12/04 02:51:17;;;;;;;;;;;2.00;79.10;;;;;;4958977;28;19909;-81
2022/12/04 02:53:48;;;;;;;;;;;2.00;79.10;;;;;;4976328;28;19921;-80
2022/12/04 02:56:16;;;;;;;;;;;1.90;79.20;;;;;;4976328;28;19931;-80
2022/12/04 02:58:51;;;;;;;;;;;2.00;79.20;;;;;;4959037;28;19913;-80
2022/12/04 03:01:19;;;;;;;;;;;2.00;79.30;;;;;;4975858;28;19992;-80
2022/12/04 03:03:48;;;;;;;;;;;2.00;79.20;;;;;;4958227;28;19952;-81
2022/12/04 03:06:14;;;;;;;;;;;2.00;79.20;;;;;;4976112;28;19953;-81
2022/12/04 03:08:42;;;;;;;;;;;2.00;79.00;;;;;;4958691;28;19942;-80
2022/12/04 03:11:07;;;;;;;;;;;2.00;79.00;;;;;;4975908;28;20007;-81
2022/12/04 03:13:46;;;;;;;;;;;2.00;79.10;;;;;;4975996;28;19961;-81
2022/12/04 03:16:14;;;;;;;;;;;2.00;79.20;;;;;;4975877;28;19978;-81
2022/12/04 03:18:42;;;;;;;;;;;2.10;79.50;;;;;;4975981;28;19906;-82
2022/12/04 03:21:09;;;;;;;;;;;2.10;79.40;;;;;;4958431;28;20008;-81
2022/12/04 03:23:40;;;;;;;;;;;2.20;79.40;;;;;;4958339;28;19906;-81
2022/12/04 03:26:18;;;;;;;;;;;2.20;79.50;;;;;;4975710;28;20359;-81
2022/12/04 03:28:59;;;;;;;;;;;2.20;79.50;;;;;;4975652;28;20353;-83
2022/12/04 03:31:39;;;;;;;;;;;2.20;79.90;;;;;;4975746;28;19906;-81
2022/12/04 03:34:06;;;;;;;;;;;2.20;80.10;;;;;;4975538;28;19914;-81
2022/12/04 03:36:52;;;;;;;;;;;2.30;80.20;;;;;;4975634;28;19929;-81
2022/12/04 03:39:27;;;;;;;;;;;2.30;79.80;;;;;;4975408;28;20381;-81
2022/12/04 03:41:55;;;;;;;;;;;2.30;79.80;;;;;;4975502;28;19969;-81
2022/12/04 03:44:23;;;;;;;;;;;2.30;79.90;;;;;;4975364;28;19910;-80
2022/12/04 03:46:51;;;;;;;;;;;2.30;80.00;;;;;;4975192;28;20355;-80
2022/12/04 03:49:20;;;;;;;;;;;2.30;79.80;;;;;;4975238;28;20285;-81
2022/12/04 03:51:57;;;;;;;;;;;2.30;79.70;;;;;;4975473;28;19906;-80
2022/12/04 03:54:28;;;;;;;;;;;2.30;79.70;;;;;;4975155;28;20383;-81
2022/12/04 03:57:14;;;;;;;;;;;2.30;79.80;;;;;;4975260;28;19906;-80
2022/12/04 03:59:42;;;;;;;;;;;2.30;79.60;;;;;;4956996;28;19910;-81
2022/12/04 04:02:09;;;;;;;;;;;2.20;78.90;;;;;;4957795;28;19910;-81
2022/12/04 04:04:35;;;;;;;;;;;2.20;79.00;;;;;;4975086;28;20331;-81
2022/12/04 04:07:08;;;;;;;;;;;2.20;79.00;;;;;;4957674;28;19910;-81
2022/12/04 04:09:35;;;;;;;;;;;2.20;79.00;;;;;;4975034;28;19906;-81
2022/12/04 04:12:01;;;;;;;;;;;2.10;78.80;;;;;;4957551;28;19956;-80
2022/12/04 04:25:55;;;;;;;;;;;1.70;80.30;;;;;;4975342;28;19913;-81
2022/12/04 04:28:28;;;;;;;;;;;1.70;80.00;;;;;;4957731;28;19910;-80
2022/12/04 04:30:55;;;;;;;;;;;1.70;80.10;;;;;;4974789;28;19906;-81
2022/12/04 04:33:21;;;;;;;;;;;1.70;80.30;;;;;;4957342;28;20373;-80
2022/12/04 04:35:52;;;;;;;;;;;1.60;80.90;;;;;;4974996;28;19910;-81
2022/12/04 04:38:27;;;;;;;;;;;1.60;80.10;;;;;;4974876;28;19949;-81
2022/12/04 04:40:57;;;;;;;;;;;1.60;80.20;;;;;;4975166;28;19906;-81
2022/12/04 04:43:25;;;;;;;;;;;1.60;80.20;;;;;;4975069;28;19937;-80
2022/12/04 04:45:54;;;;;;;;;;;1.60;80.20;;;;;;4957505;28;20378;-80
2022/12/04 04:48:26;;;;;;;;;;;1.50;80.40;;;;;;4957691;28;19917;-82
2022/12/04 04:50:52;;;;;;;;;;;1.50;80.50;;;;;;4957666;28;19913;-81
2022/12/04 04:53:21;;;;;;;;;;;1.50;80.60;;;;;;4974736;28;19906;-81
2022/12/04 04:55:47;;;;;;;;;;;1.50;80.50;;;;;;4974957;28;19913;-81
2022/12/04 04:58:14;;;;;;;;;;;1.50;80.60;;;;;;4957367;28;19910;-81
2022/12/04 05:00:40;;;;;;;;;;;1.50;80.50;;;;;;4974662;28;19910;-80
2022/12/04 05:03:05;;;;;;;;;;;1.50;80.30;;;;;;4957298;28;19906;-81
2022/12/04 05:05:31;;;;;;;;;;;1.60;80.30;;;;;;4974582;28;19924;-81
2022/12/04 05:07:56;;;;;;;;;;;1.50;80.30;;;;;;4974707;28;19952;-80
2022/12/04 05:10:22;;;;;;;;;;;1.60;80.30;;;;;;4974364;28;19906;-80
2022/12/04 05:12:47;;;;;;;;;;;1.70;80.30;;;;;;4974362;28;19960;-80
2022/12/04 05:15:13;;;;;;;;;;;1.70;80.30;;;;;;4974221;28;20089;-81
2022/12/04 05:17:38;;;;;;;;;;;1.70;80.20;;;;;;4956986;28;19940;-81
2022/12/04 05:20:05;;;;;;;;;;;1.80;80.00;;;;;;4974576;28;19961;-81
2022/12/04 05:22:31;;;;;;;;;;;1.80;79.70;;;;;;4957415;28;19906;-80
2022/12/04 05:24:57;;;;;;;;;;;1.80;79.60;;;;;;4975052;28;19906;-80
2022/12/04 05:27:23;;;;;;;;;;;1.80;79.60;;;;;;4978753;28;19929;-80
2022/12/04 05:29:51;;;;;;;;;;;1.90;79.80;;;;;;4978640;28;19960;-80
2022/12/04 05:32:16;;;;;;;;;;;1.90;79.60;;;;;;4978639;28;19914;-80
2022/12/04 05:34:42;;;;;;;;;;;1.90;79.50;;;;;;4978473;28;19922;-80
2022/12/04 05:37:08;;;;;;;;;;;1.90;79.40;;;;;;4961209;28;19921;-80
2022/12/04 05:39:34;;;;;;;;;;;1.90;79.40;;;;;;4979431;28;19906;-79
2022/12/04 05:42:00;;;;;;;;;;;2.00;79.40;;;;;;4979380;28;19906;-80
2022/12/04 05:44:25;;;;;;;;;;;2.00;79.30;;;;;;4979212;28;19907;-79
2022/12/04 05:46:51;;;;;;;;;;;2.00;79.40;;;;;;4962016;28;19925;-80
2022/12/04 05:49:16;;;;;;;;;;;2.00;79.40;;;;;;4980840;28;19928;-78
2022/12/04 05:51:42;;;;;;;;;;;2.00;79.30;;;;;;4967257;28;19953;-79
2022/12/04 05:54:07;;;;;;;;;;;2.10;79.30;;;;;;4977980;28;19925;-79
2022/12/04 05:56:33;;;;;;;;;;;2.10;79.20;;;;;;4978021;28;19949;-80
2022/12/04 05:58:58;;;;;;;;;;;2.10;78.50;;;;;;4978061;28;19997;-80
2022/12/04 06:01:24;;;;;;;;;;;1.90;78.50;;;;;;4960652;28;19906;-80
2022/12/04 06:03:49;;;;;;;;;;;1.90;78.50;;;;;;4977965;28;19906;-80
2022/12/04 06:06:17;;;;;;;;;;;1.80;78.80;;;;;;4960606;28;19909;-80
2022/12/04 06:08:42;;;;;;;;;;;1.80;79.10;;;;;;4977645;28;19909;-79
2022/12/04 06:11:09;;;;;;;;;;;1.80;79.30;;;;;;4977949;28;19906;-80
2022/12/04 06:13:34;;;;;;;;;;;1.80;79.40;;;;;;4960473;28;19977;-80
2022/12/04 06:16:00;;;;;;;;;;;1.90;79.50;;;;;;4977789;28;20362;-80
2022/12/04 06:18:25;;;;;;;;;;;1.90;79.60;;;;;;4977376;28;19928;-81
2022/12/04 06:20:51;;;;;;;;;;;2.00;79.60;;;;;;4960086;28;19914;-80
2022/12/04 06:23:16;;;;;;;;;;;2.00;79.50;;;;;;4977482;28;20325;-81
2022/12/04 06:25:41;;;;;;;;;;;2.00;79.40;;;;;;4977352;28;19977;-81
2022/12/04 06:28:07;;;;;;;;;;;2.10;79.30;;;;;;4959808;28;20385;-80
2022/12/04 06:30:33;;;;;;;;;;;2.00;79.00;;;;;;4977316;28;20369;-80
2022/12/04 06:32:58;;;;;;;;;;;2.10;78.90;;;;;;4977192;28;19913;-80
2022/12/04 06:35:24;;;;;;;;;;;2.10;78.80;;;;;;4976966;28;19914;-80
2022/12/04 06:37:49;;;;;;;;;;;2.10;78.70;;;;;;4977088;28;19906;-80
2022/12/04 06:40:15;;;;;;;;;;;2.10;78.70;;;;;;4959537;28;19945;-80
2022/12/04 06:42:40;;;;;;;;;;;2.00;78.40;;;;;;4959789;28;19910;-80
2022/12/04 06:45:06;;;;;;;;;;;2.00;78.50;;;;;;4977004;28;20286;-79
2022/12/04 06:47:32;;;;;;;;;;;2.10;78.60;;;;;;4959504;28;19922;-80
2022/12/04 06:49:58;;;;;;;;;;;2.00;78.40;;;;;;4976942;28;19910;-80
2022/12/04 06:52:23;;;;;;;;;;;2.10;78.70;;;;;;4959293;28;20259;-79
2022/12/04 06:54:49;;;;;;;;;;;2.10;78.80;;;;;;4976569;28;19913;-80
2022/12/04 06:57:14;;;;;;;;;;;2.10;78.80;;;;;;4959247;28;19906;-80
2022/12/04 06:59:40;;;;;;;;;;;2.10;78.40;;;;;;4976769;28;19906;-80
2022/12/04 07:02:05;;;;;;;;;;;2.10;78.40;;;;;;4976432;28;20318;-80
2022/12/04 07:04:31;;;;;;;;;;;2.20;78.40;;;;;;4959270;28;19910;-80
2022/12/04 07:06:56;;;;;;;;;;;2.10;78.30;;;;;;4958970;28;20382;-80
2022/12/04 07:09:22;;;;;;;;;;;2.20;78.10;;;;;;4976355;28;19997;-80
2022/12/04 07:11:47;;;;;;;;;;;2.20;78.80;;;;;;4976401;28;19906;-80
2022/12/04 07:14:13;;;;;;;;;;;2.20;77.90;;;;;;4976292;28;19914;-80
2022/12/04 07:16:39;;;;;;;;;;;2.20;77.70;;;;;;4959050;28;19913;-81
2022/12/04 07:19:05;;;;;;;;;;;2.20;77.70;;;;;;4976237;28;19945;-81
2022/12/04 07:21:30;;;;;;;;;;;2.20;78.10;;;;;;4976390;28;19956;-81
2022/12/04 07:23:57;;;;;;;;;;;2.20;78.30;;;;;;4976207;28;19913;-81
2022/12/04 07:26:22;;;;;;;;;;;2.10;79.00;;;;;;4975782;28;19910;-81
2022/12/04 07:28:48;;;;;;;;;;;2.00;79.10;;;;;;4975784;28;19914;-80
2022/12/04 07:31:15;;;;;;;;;;;2.00;79.50;;;;;;4975844;28;20379;-80
2022/12/04 07:33:40;;;;;;;;;;;2.10;79.80;;;;;;4977623;28;19910;-80
2022/12/04 07:36:07;;;;;;;;;;;2.10;79.90;;;;;;4976343;28;19957;-80
2022/12/04 07:38:33;;;;;;;;;;;2.10;79.70;;;;;;4976007;28;19906;-81
2022/12/04 07:41:00;;;;;;;;;;;2.10;79.70;;;;;;4959148;28;19913;-81
2022/12/04 07:43:26;;;;;;;;;;;2.10;79.80;;;;;;4976423;28;19906;-80
2022/12/04 07:45:51;;;;;;;;;;;2.20;79.70;;;;;;4977042;28;20367;-81
2022/12/04 07:48:17;;;;;;;;;;;2.20;79.70;;;;;;4958090;28;19917;-80
2022/12/04 07:50:43;;;;;;;;;;;2.20;79.60;;;;;;4958456;28;19913;-80
2022/12/04 07:53:08;;;;;;;;;;;2.20;79.30;;;;;;4975017;28;19906;-80
2022/12/04 07:55:34;;;;;;;;;;;2.20;79.20;;;;;;4957871;28;20260;-80
2022/12/04 07:57:59;;;;;;;;;;;2.30;78.90;;;;;;4975593;28;19952;-81
2022/12/04 08:00:25;;;;;;;;;;;2.30;78.70;;;;;;4975304;28;19913;-81
2022/12/04 08:02:50;;;;;;;;;;;2.30;78.50;;;;;;4958887;28;19933;-81
2022/12/04 08:05:16;;;;;;;;;;;2.30;79.40;;;;;;4975635;28;19933;-81
2022/12/04 08:07:42;;;;;;;;;;;2.30;78.70;;;;;;4975453;28;19953;-81
2022/12/04 08:10:08;;;;;;;;;;;2.30;79.60;;;;;;4975778;28;19916;-81
2022/12/04 08:12:33;;;;;;;;;;;2.30;79.50;;;;;;4958362;28;19906;-81
2022/12/04 08:14:59;;;;;;;;;;;2.40;79.40;;;;;;4975730;28;19914;-81
2022/12/04 08:17:24;;;;;;;;;;;2.40;79.20;;;;;;4975871;28;19929;-81
2022/12/04 08:19:50;;;;;;;;;;;2.50;79.00;;;;;;4975304;28;20001;-82
2022/12/04 08:22:15;;;;;;;;;;;2.40;78.70;;;;;;4975158;28;20009;-82
2022/12/04 08:24:40;;;;;;;;;;;2.40;78.40;;;;;;4975868;28;19910;-81
2022/12/04 08:27:06;;;;;;;;;;;2.50;78.40;;;;;;4975227;28;19906;-81
2022/12/04 08:29:31;;;;;;;;;;;2.40;78.40;;;;;;4974948;28;19913;-80
2022/12/04 08:31:57;;;;;;;;;;;2.50;78.40;;;;;;4957601;28;20263;-80
2022/12/04 08:34:22;;;;;;;;;;;2.50;78.20;;;;;;4974936;28;19921;-81
2022/12/04 08:36:48;;;;;;;;;;;2.50;77.90;;;;;;4974806;28;19941;-81
2022/12/04 08:39:13;;;;;;;;;;;2.50;77.90;;;;;;4957554;28;19954;-81
2022/12/04 08:41:39;;;;;;;;;;;2.60;77.80;;;;;;4977972;28;19913;-82
2022/12/04 08:44:05;;;;;;;;;;;2.60;78.00;;;;;;4961375;28;19906;-81
2022/12/04 08:46:30;;;;;;;;;;;2.60;77.80;;;;;;4980403;28;20287;-81
2022/12/04 08:48:56;;;;;;;;;;;2.60;77.40;;;;;;4976416;28;19906;-81
2022/12/04 08:51:23;;;;;;;;;;;2.60;77.50;;;;;;4966231;28;19913;-81
2022/12/04 08:53:55;;;;;;;;;;;2.60;77.50;;;;;;4975453;28;19933;-82
2022/12/04 08:56:21;;;;;;;;;;;2.70;77.80;;;;;;4975023;28;20004;-81
2022/12/04 08:58:46;;;;;;;;;;;2.70;78.30;;;;;;4975831;28;19949;-82
2022/12/04 09:01:13;;;;;;;;;;;2.80;77.40;;;;;;4960226;28;20248;-82
2022/12/04 09:03:38;;;;;;;;;;;2.80;77.30;;;;;;4961262;28;19906;-81
2022/12/04 09:06:05;;;;;;;;;;;2.80;77.30;;;;;;4978550;28;19961;-82
2022/12/04 09:08:31;;;;;;;;;;;2.90;77.30;;;;;;4961384;28;19912;-81
2022/12/04 09:11:32;;;;;;;;;;;2.90;77.20;;;;;;4978771;28;20004;-81
2022/12/04 09:13:58;;;;;;;;;;;3.00;77.10;;;;;;4865658;29;20010;-81
2022/12/04 09:16:24;;;;;;;;;;;3.10;77.10;;;;;;4957991;28;20006;-81
2022/12/04 09:18:49;;;;;;;;;;;3.10;76.60;;;;;;4978292;28;19906;-81
2022/12/04 09:21:16;;;;;;;;;;;3.10;77.20;;;;;;4961006;28;19906;-81
2022/12/04 09:23:41;;;;;;;;;;;3.10;77.10;;;;;;4978126;28;20334;-81
2022/12/04 09:26:17;;;;;;;;;;;3.10;76.30;;;;;;4960739;28;19945;-81
2022/12/04 09:28:43;;;;;;;;;;;3.10;76.10;;;;;;4960643;28;20322;-80
2022/12/04 09:31:08;;;;;;;;;;;3.10;76.30;;;;;;4960750;28;19924;-81
2022/12/04 09:33:34;;;;;;;;;;;3.00;76.70;;;;;;4977834;28;19914;-81
2022/12/04 09:36:01;;;;;;;;;;;2.90;76.80;;;;;;4960527;28;19956;-81
2022/12/04 09:38:27;;;;;;;;;;;2.90;76.80;;;;;;4960807;28;19906;-81
2022/12/04 09:40:52;;;;;;;;;;;2.90;77.10;;;;;;4978053;28;20433;-81
2022/12/04 09:43:35;;;;;;;;;;;2.90;77.10;;;;;;4978102;28;19957;-81
2022/12/04 09:46:08;;;;;;;;;;;2.70;77.60;;;;;;4978119;28;20354;-81
2022/12/04 09:48:36;;;;;;;;;;;2.70;78.10;;;;;;4978394;28;20382;-81
2022/12/04 09:51:03;;;;;;;;;;;2.60;78.30;;;;;;4978186;28;20077;-81
2022/12/04 09:53:38;;;;;;;;;;;2.70;78.50;;;;;;4978147;28;20279;-81
2022/12/04 09:56:04;;;;;;;;;;;2.60;78.70;;;;;;4960770;28;19910;-81
2022/12/04 09:58:36;;;;;;;;;;;2.60;79.00;;;;;;4977893;28;19912;-80
2022/12/04 10:01:02;;;;;;;;;;;2.60;78.90;;;;;;4978028;28;20274;-80
2022/12/04 10:03:29;;;;;;;;;;;2.60;78.80;;;;;;4978059;28;19906;-80
2022/12/04 10:06:07;;;;;;;;;;;2.60;79.10;;;;;;4960557;28;19906;-80
2022/12/04 10:08:34;;;;;;;;;;;2.60;79.10;;;;;;4977989;28;20362;-80
2022/12/04 10:11:09;;;;;;;;;;;2.60;79.00;;;;;;4960008;28;19913;-80
2022/12/04 10:13:34;;;;;;;;;;;2.60;79.00;;;;;;4960557;28;19972;-81
2022/12/04 10:16:32;;;;;;;;;;;2.70;79.00;;;;;;4977407;28;20346;-80
2022/12/04 10:19:16;;;;;;;;;;;2.70;78.90;;;;;;4907662;28;19936;-80
2022/12/04 10:21:51;;;;;;;;;;;2.70;78.70;;;;;;4977742;28;19910;-80
2022/12/04 10:24:22;;;;;;;;;;;2.80;78.50;;;;;;4977587;28;20029;-80
2022/12/04 10:26:48;;;;;;;;;;;2.80;78.40;;;;;;4977662;28;20380;-80
2022/12/04 10:29:23;;;;;;;;;;;2.70;78.60;;;;;;4977567;28;19996;-81
2022/12/04 10:31:49;;;;;;;;;;;2.70;79.00;;;;;;4977697;28;19950;-81
2022/12/04 10:34:15;;;;;;;;;;;2.70;79.20;;;;;;4977583;28;19930;-81
2022/12/04 10:36:44;;;;;;;;;;;2.50;79.80;;;;;;4977415;28;19905;-80
2022/12/04 10:39:15;;;;;;;;;;;2.50;80.10;;;;;;4960168;28;20338;-82
2022/12/04 10:41:46;;;;;;;;;;;2.50;79.90;;;;;;4977485;28;19912;-83
2022/12/04 10:44:13;;;;;;;;;;;2.50;80.00;;;;;;4977040;28;19905;-81
2022/12/04 10:46:39;;;;;;;;;;;2.50;80.10;;;;;;4959333;28;20327;-81
2022/12/04 10:49:12;;;;;;;;;;;2.50;80.30;;;;;;4976935;28;19961;-81
2022/12/04 10:51:39;;;;;;;;;;;2.50;80.50;;;;;;4976876;28;19988;-81
2022/12/04 10:54:17;;;;;;;;;;;2.60;80.60;;;;;;4977043;28;19918;-83
2022/12/04 10:56:53;;;;;;;;;;;2.50;80.80;;;;;;4979950;28;20367;-80
2022/12/04 10:59:18;;;;;;;;;;;2.60;80.50;;;;;;4977156;28;19910;-81
2022/12/04 11:01:44;;;;;;;;;;;2.50;80.50;;;;;;4976999;28;20384;-80
2022/12/04 11:04:22;;;;;;;;;;;2.60;80.30;;;;;;4959569;28;19950;-81
2022/12/04 11:06:51;;;;;;;;;;;2.60;80.20;;;;;;4977372;28;19906;-83
2022/12/04 11:09:22;;;;;;;;;;;2.60;80.60;;;;;;4976897;28;20329;-81
2022/12/04 11:11:48;;;;;;;;;;;2.60;80.70;;;;;;4959711;28;20381;-81
2022/12/04 11:14:16;;;;;;;;;;;2.60;80.80;;;;;;4976858;28;19914;-80
2022/12/04 11:16:47;;;;;;;;;;;2.70;80.90;;;;;;4976877;28;19910;-82
2022/12/04 11:19:23;;;;;;;;;;;2.70;81.00;;;;;;4976785;28;20424;-81
2022/12/04 11:21:49;;;;;;;;;;;2.70;81.10;;;;;;4959321;28;19906;-82
2022/12/04 11:24:18;;;;;;;;;;;2.60;81.20;;;;;;4975867;28;19906;-82
2022/12/04 11:26:45;;;;;;;;;;;2.70;81.20;;;;;;4976542;28;19906;-82
2022/12/04 11:29:13;;;;;;;;;;;2.80;81.10;;;;;;4976753;28;19932;-81
2022/12/04 11:31:39;;;;;;;;;;;2.80;81.10;;;;;;4976494;28;19909;-82
2022/12/04 11:34:07;;;;;;;;;;;2.90;81.20;;;;;;4959173;28;20330;-81
2022/12/04 11:36:34;;;;;;;;;;;2.80;80.90;;;;;;4976101;28;19953;-81
2022/12/04 11:39:11;;;;;;;;;;;2.90;81.00;;;;;;4975929;28;19912;-81
2022/12/04 11:41:37;;;;;;;;;;;2.90;81.00;;;;;;4958574;28;19954;-81
2022/12/04 11:44:04;;;;;;;;;;;2.90;81.10;;;;;;4975741;28;19952;-81
2022/12/04 11:46:32;;;;;;;;;;;3.00;81.00;;;;;;4975461;28;19926;-81
2022/12/04 11:48:58;;;;;;;;;;;3.00;80.90;;;;;;4975792;28;19906;-81
2022/12/04 11:51:38;;;;;;;;;;;3.00;80.80;;;;;;4958005;28;19992;-81
2022/12/04 11:54:22;;;;;;;;;;;2.90;80.50;;;;;;4976027;28;19917;-83
2022/12/04 11:57:02;;;;;;;;;;;2.80;80.70;;;;;;4975517;28;19910;-81
2022/12/04 11:59:47;;;;;;;;;;;2.80;81.00;;;;;;4958034;28;20436;-81
2022/12/04 12:02:27;;;;;;;;;;;2.80;80.90;;;;;;4958108;28;20374;-81
2022/12/04 12:05:02;;;;;;;;;;;2.80;81.10;;;;;;4975624;28;20001;-81
2022/12/04 12:07:31;;;;;;;;;;;2.80;81.50;;;;;;4958142;28;20226;-82
2022/12/04 12:10:17;;;;;;;;;;;2.80;81.10;;;;;;4958192;28;19906;-82
2022/12/04 12:13:02;;;;;;;;;;;2.80;81.20;;;;;;4975355;28;20386;-82
2022/12/04 12:15:46;;;;;;;;;;;2.70;81.20;;;;;;4975285;28;20013;-82
2022/12/04 12:18:11;;;;;;;;;;;2.60;81.60;;;;;;4958572;28;19910;-82
2022/12/04 12:20:44;;;;;;;;;;;2.50;82.50;;;;;;4958853;28;20020;-82
2022/12/04 12:23:36;;;;;;;;;;;2.60;82.90;;;;;;4976374;28;19933;-82
2022/12/04 12:26:08;;;;;;;;;;;2.60;82.80;;;;;;4938812;28;19914;-83
2022/12/04 12:28:34;;;;;;;;;;;2.70;82.80;;;;;;4975854;28;19906;-83
2022/12/04 12:31:15;;;;;;;;;;;2.70;82.30;;;;;;4958595;28;19906;-82
2022/12/04 12:33:59;;;;;;;;;;;2.80;82.40;;;;;;4975009;28;20429;-82
2022/12/04 12:36:27;;;;;;;;;;;2.80;82.10;;;;;;4957876;28;19957;-82
2022/12/04 12:38:54;;;;;;;;;;;2.70;82.00;;;;;;4974734;28;19961;-83
2022/12/04 12:41:23;;;;;;;;;;;2.70;82.20;;;;;;4957615;28;19960;-81
2022/12/04 12:43:55;;;;;;;;;;;2.70;81.90;;;;;;4957799;28;19906;-82
2022/12/04 12:46:24;;;;;;;;;;;2.70;82.10;;;;;;4957543;28;20098;-82
2022/12/04 12:49:02;;;;;;;;;;;2.70;82.00;;;;;;4957897;28;20270;-81
2022/12/04 12:51:33;;;;;;;;;;;2.70;81.50;;;;;;4975097;28;20343;-81
2022/12/04 12:54:11;;;;;;;;;;;2.60;81.90;;;;;;4975140;28;19933;-81
2022/12/04 12:56:40;;;;;;;;;;;2.60;82.20;;;;;;4957526;28;20274;-82
2022/12/04 12:59:10;;;;;;;;;;;2.60;82.20;;;;;;4974832;28;20367;-81
2022/12/04 13:02:00;;;;;;;;;;;2.60;82.10;;;;;;4974828;28;20251;-82
2022/12/04 13:04:32;;;;;;;;;;;2.60;81.70;;;;;;4922712;28;19975;-81
2022/12/04 13:07:03;;;;;;;;;;;2.70;82.00;;;;;;4974923;28;19906;-81
2022/12/04 13:09:33;;;;;;;;;;;2.80;82.00;;;;;;4975515;28;19906;-81
2022/12/04 13:12:10;;;;;;;;;;;2.80;81.90;;;;;;4958854;28;19910;-81
2022/12/04 13:14:35;;;;;;;;;;;2.80;81.80;;;;;;4974655;28;19985;-82
2022/12/04 13:17:13;;;;;;;;;;;2.80;81.10;;;;;;4962237;28;19972;-81
2022/12/04 13:19:52;;;;;;;;;;;2.80;80.90;;;;;;4959949;28;20347;-82
2022/12/04 13:22:20;;;;;;;;;;;2.90;81.00;;;;;;4974641;28;19910;-81
2022/12/04 13:25:04;;;;;;;;;;;2.90;80.60;;;;;;4974514;28;19996;-81
2022/12/04 13:27:33;;;;;;;;;;;2.90;80.20;;;;;;4957215;28;20423;-81
2022/12/04 13:30:17;;;;;;;;;;;2.90;80.70;;;;;;4974752;28;19913;-81
2022/12/04 13:32:42;;;;;;;;;;;2.90;81.00;;;;;;4957409;28;19996;-81
2022/12/04 13:35:27;;;;;;;;;;;3.00;80.90;;;;;;4957209;28;19921;-82
2022/12/04 13:38:11;;;;;;;;;;;3.00;81.00;;;;;;4957393;28;19928;-82
2022/12/04 13:40:39;;;;;;;;;;;3.00;80.80;;;;;;4974583;28;20384;-82
2022/12/04 13:43:23;;;;;;;;;;;3.10;80.40;;;;;;4957155;28;19906;-82
2022/12/04 13:45:50;;;;;;;;;;;3.00;80.40;;;;;;4974602;28;19949;-82
2022/12/04 13:48:25;;;;;;;;;;;3.10;80.80;;;;;;4978346;28;19925;-82
2022/12/04 13:50:59;;;;;;;;;;;3.10;81.00;;;;;;4960804;28;19906;-82
2022/12/04 13:53:28;;;;;;;;;;;3.10;81.20;;;;;;4978395;28;19929;-82
2022/12/04 13:55:54;;;;;;;;;;;3.00;80.90;;;;;;4978266;28;19914;-82
2022/12/04 13:58:20;;;;;;;;;;;3.10;81.20;;;;;;4960435;28;19913;-82
2022/12/04 14:00:45;;;;;;;;;;;3.10;81.40;;;;;;4960761;28;19906;-82
2022/12/04 14:03:24;;;;;;;;;;;2.90;81.80;;;;;;4977952;28;20006;-82
2022/12/04 14:05:50;;;;;;;;;;;2.80;82.80;;;;;;4961096;28;19993;-82
2022/12/04 14:08:18;;;;;;;;;;;2.70;83.30;;;;;;4978277;28;19992;-81
2022/12/04 14:10:54;;;;;;;;;;;2.60;83.70;;;;;;4961704;28;19906;-81
2022/12/04 14:13:22;;;;;;;;;;;2.60;83.80;;;;;;4979631;28;20375;-82
2022/12/04 14:15:48;;;;;;;;;;;2.60;83.90;;;;;;4978772;28;19918;-82
2022/12/04 14:18:19;;;;;;;;;;;2.60;84.00;;;;;;4985998;28;19953;-81
2022/12/04 14:20:55;;;;;;;;;;;2.60;83.80;;;;;;4960206;28;20259;-81
2022/12/04 14:23:25;;;;;;;;;;;2.60;83.80;;;;;;4960180;28;19913;-82
2022/12/04 14:25:55;;;;;;;;;;;2.60;83.80;;;;;;4977411;28;19906;-82
2022/12/04 14:28:24;;;;;;;;;;;2.70;83.80;;;;;;4960217;28;19948;-82
2022/12/04 14:31:04;;;;;;;;;;;2.70;83.60;;;;;;4959824;28;19909;-81
2022/12/04 14:33:31;;;;;;;;;;;2.80;83.50;;;;;;4959775;28;19913;-82
2022/12/04 14:36:05;;;;;;;;;;;2.80;83.10;;;;;;4960124;28;19914;-82
2022/12/04 14:38:31;;;;;;;;;;;2.80;82.70;;;;;;4977271;28;19906;-82
2022/12/04 14:40:57;;;;;;;;;;;2.80;82.50;;;;;;4977007;28;19906;-82
2022/12/04 14:43:24;;;;;;;;;;;2.80;82.50;;;;;;4977333;28;20373;-81
2022/12/04 14:46:10;;;;;;;;;;;2.90;82.50;;;;;;4959345;28;19960;-81
2022/12/04 14:48:51;;;;;;;;;;;2.90;82.60;;;;;;4976072;28;19914;-80
2022/12/04 14:51:23;;;;;;;;;;;2.90;82.60;;;;;;4959599;28;20403;-82
2022/12/04 14:54:07;;;;;;;;;;;3.00;82.60;;;;;;4976763;28;19910;-82